Ravenna, OH

1:03 AM EDT on September 25, 2017 (GMT -0400)
Ravenna

Weather History for KPOV - March, 2013

Change the Weather History Date:

Wednesday, March 13, 2013

  Actual Average (KCAK) Record (KCAK)
Temperature  
Mean Temperature 30 °F -  
Max Temperature 33 °F 46 °F 75 °F (1990)
Min Temperature 26 °F 29 °F 4 °F (1948)
Degree Days  
Heating Degree Days 36    
Moisture  
Dew Point 22 °F    
Average Humidity 74    
Maximum Humidity 99    
Minimum Humidity 55    
Precipitation  
Precipitation 0.00 in - - ()
Sea Level Pressure  
Sea Level Pressure 29.96 in    
Wind  
Wind Speed 9 mph (West)    
Max Wind Speed 24 mph    
Max Gust Speed 33 mph    
Visibility 9 miles    
Events Snow    
Averages and records for this station are not official NWS values.
T = Trace of Precipitation, MM = Missing Value Source: NWS Daily Summary

Daily Weather History Graph

Daily Weather History Graph

Search for Another Location

Airport or City:

Trip Planner

Search our weather history database for the weather conditions in past years. The results will help you decide how hot, cold, wet, or windy it might be!

Date:

Astronomy

Mar. 13, 2013 Rise Set
Actual Time 7:39 AM EDT 7:29 PM EDT
Civil Twilight 7:12 AM EDT 7:57 PM EDT
Nautical Twilight 6:40 AM EDT 8:29 PM EDT
Astronomical Twilight 6:07 AM EDT 9:01 PM EDT
Moon 8:16 AM EDT (3/13) 9:46 PM EDT (3/13)
Length of Visible Light 12h 45m
Length of Day
11h 50m
Waxing Crescent, 4% of the Moon is Illuminated
Mar 13
Waxing Crescent
Mar 19
First Quarter
Mar 27
Full
Apr 3
Last Quarter
Apr 10
New

Hourly Weather History & Observations

Time (EDT) Temp. Windchill Dew Point Humidity Pressure Visibility Wind Dir Wind Speed Gust Speed Precip Events Conditions
12:16 AM 32.9 °F - 25.2 °F 73% 29.94 in 10.0 mi Calm Calm - N/A   Overcast
12:36 AM 33.1 °F 30.0 °F 25.7 °F 74% 29.93 in 10.0 mi SSW 3.5 mph - N/A   Overcast
12:56 AM 33.4 °F 26.6 °F 25.7 °F 73% 29.93 in 10.0 mi WSW 8.1 mph - N/A   Overcast
1:16 AM 33.3 °F 26.4 °F 25.3 °F 73% 29.93 in 10.0 mi WSW 8.1 mph 17.3 mph N/A   Overcast
1:55 AM 32.0 °F 25.6 °F 25.5 °F 77% 29.92 in 10.0 mi West 6.9 mph - N/A   Mostly Cloudy
2:16 AM 32.0 °F 28.7 °F 25.2 °F 76% 29.92 in 10.0 mi WSW 3.5 mph - N/A   Overcast
2:36 AM 31.8 °F - 25.2 °F 76% 29.91 in 10.0 mi Calm Calm - N/A   Overcast
2:56 AM 30.9 °F - 24.8 °F 78% 29.91 in 10.0 mi Calm Calm - N/A   Scattered Clouds
3:16 AM 30.4 °F - 25.0 °F 80% 29.90 in 10.0 mi Calm Calm - N/A   Scattered Clouds
3:36 AM 30.2 °F - 26.1 °F 85% 29.90 in 10.0 mi Calm Calm - N/A   Mostly Cloudy
3:56 AM 30.7 °F 27.3 °F 27.5 °F 88% 29.89 in 10.0 mi SW 3.5 mph - N/A   Overcast
4:16 AM 30.9 °F 26.2 °F 27.5 °F 87% 29.89 in 5.0 mi SW 4.6 mph - N/A Snow Light Snow
4:55 AM 30.9 °F 26.2 °F 30.7 °F 99% 29.88 in 4.0 mi WSW 4.6 mph - N/A Snow Light Snow
5:16 AM 31.3 °F 22.7 °F 29.5 °F 93% 29.88 in 10.0 mi WSW 10.4 mph - N/A   Overcast
5:36 AM 30.9 °F 21.7 °F 26.6 °F 84% 29.88 in 10.0 mi WSW 11.5 mph - N/A   Mostly Cloudy
5:56 AM 30.7 °F 24.1 °F 26.4 °F 84% 29.88 in 10.0 mi WSW 6.9 mph - N/A   Mostly Cloudy
6:16 AM 30.9 °F 22.8 °F 26.2 °F 83% 29.88 in 10.0 mi WSW 9.2 mph - N/A   Overcast
6:36 AM 30.9 °F 22.8 °F 25.7 °F 81% 29.88 in 10.0 mi WSW 9.2 mph - N/A   Overcast
6:56 AM 31.1 °F 23.1 °F 25.5 °F 80% 29.88 in 10.0 mi WSW 9.2 mph - N/A   Overcast
7:16 AM 30.9 °F 22.2 °F 25.3 °F 80% 29.89 in 10.0 mi WSW 10.4 mph - N/A   Overcast
7:36 AM 30.9 °F 22.8 °F 25.3 °F 80% 29.88 in 10.0 mi WSW 9.2 mph - N/A   Overcast
7:56 AM 30.9 °F 23.5 °F 25.3 °F 80% 29.89 in 10.0 mi WSW 8.1 mph - N/A Snow Light Snow
8:16 AM 30.7 °F 23.3 °F 25.7 °F 82% 29.89 in 5.0 mi WSW 8.1 mph - N/A Snow Light Snow
8:36 AM 30.2 °F 21.3 °F 25.7 °F 83% 29.89 in 5.0 mi West 10.4 mph 20.7 mph N/A Snow Light Snow
8:55 AM 30.4 °F 20.5 °F 24.8 °F 80% 29.90 in 10.0 mi West 12.7 mph - N/A   Overcast
9:16 AM 30.9 °F 19.1 °F 22.5 °F 71% 29.90 in 10.0 mi West 18.4 mph 24.2 mph N/A   Overcast
9:36 AM 30.7 °F 20.9 °F 21.7 °F 69% 29.91 in 10.0 mi West 12.7 mph 19.6 mph N/A   Overcast
9:56 AM 30.7 °F 20.4 °F 21.0 °F 67% 29.91 in 10.0 mi WNW 13.8 mph 17.3 mph N/A   Overcast
10:16 AM 30.6 °F 20.7 °F 21.4 °F 69% 29.92 in 10.0 mi WNW 12.7 mph 18.4 mph N/A   Overcast
10:36 AM 30.7 °F 20.4 °F 21.6 °F 69% 29.93 in 10.0 mi West 13.8 mph 19.6 mph N/A   Overcast
10:41 AM 30.4 °F 19.5 °F 21.4 °F 69% 29.93 in 10.0 mi West 15.0 mph 21.9 mph N/A   Overcast
11:05 AM 30.2 °F 19.8 °F 19.4 °F 64% 29.93 in 10.0 mi West 13.8 mph 19.6 mph N/A   Overcast
11:15 AM 30.6 °F 18.6 °F 19.4 °F 63% 29.93 in 10.0 mi West 18.4 mph 23.0 mph N/A   Overcast
11:36 AM 30.9 °F 19.4 °F 19.0 °F 61% 29.94 in 10.0 mi West 17.3 mph 21.9 mph N/A   Mostly Cloudy
11:56 AM 31.5 °F 20.9 °F 19.6 °F 62% 29.94 in 10.0 mi West 15.0 mph 20.7 mph N/A   Overcast
12:16 PM 31.5 °F 19.4 °F 19.8 °F 62% 29.95 in 7.0 mi West 19.6 mph 27.6 mph N/A Snow Light Snow
12:36 PM 31.8 °F 21.0 °F 22.3 °F 68% 29.94 in 10.0 mi West 16.1 mph 20.7 mph N/A   Overcast
12:55 PM 29.8 °F 18.9 °F 23.0 °F 76% 29.95 in 2.5 mi WNW 15.0 mph 24.2 mph N/A Snow Light Snow
1:16 PM 26.6 °F 15.2 °F 22.6 °F 85% 29.97 in 0.8 mi West 13.8 mph 24.2 mph N/A Snow Light Snow
1:36 PM 28.6 °F 17.7 °F 22.8 °F 79% 29.97 in 10.0 mi West 13.8 mph 20.7 mph N/A   Overcast
1:55 PM 30.0 °F 17.5 °F 18.5 °F 62% 29.97 in 10.0 mi West 19.6 mph 26.5 mph N/A   Overcast
2:16 PM 30.7 °F 18.5 °F 18.3 °F 60% 29.98 in 10.0 mi West 19.6 mph 27.6 mph N/A   Overcast
2:36 PM 30.6 °F 17.3 °F 16.0 °F 55% 29.98 in 10.0 mi WNW 23.0 mph 28.8 mph N/A   Overcast
2:56 PM 28.9 °F 16.9 °F 15.3 °F 57% 29.99 in 10.0 mi West 17.3 mph 26.5 mph N/A   Overcast
3:16 PM 28.6 °F 14.3 °F 14.4 °F 55% 29.99 in 10.0 mi West 24.2 mph 33.4 mph N/A   Overcast
3:36 PM 28.9 °F 17.3 °F 14.4 °F 55% 29.99 in 10.0 mi West 16.1 mph 25.3 mph N/A   Overcast
3:56 PM 28.9 °F 15.4 °F 14.5 °F 55% 30.00 in 10.0 mi West 21.9 mph 27.6 mph N/A   Overcast
4:16 PM 28.4 °F 15.1 °F 16.2 °F 60% 30.01 in 10.0 mi West 20.7 mph 26.5 mph N/A Snow Light Snow
4:36 PM 29.3 °F 19.1 °F 17.2 °F 61% 30.01 in 10.0 mi West 12.7 mph 21.9 mph N/A   Overcast
4:56 PM 28.8 °F 17.0 °F 19.0 °F 67% 30.02 in 7.0 mi West 16.1 mph 21.9 mph N/A   Overcast
5:16 PM 28.9 °F 18.2 °F 20.3 °F 70% 30.02 in 10.0 mi West 13.8 mph 18.4 mph N/A   Overcast
5:36 PM 28.4 °F 15.8 °F 19.4 °F 69% 30.03 in 7.0 mi West 18.4 mph 24.2 mph N/A Snow Light Snow
5:55 PM 27.9 °F 16.3 °F 20.5 °F 74% 30.04 in 5.0 mi WNW 15.0 mph 23.0 mph N/A   Haze
6:16 PM 26.8 °F 13.7 °F 21.6 °F 81% 30.04 in 1.5 mi West 18.4 mph 26.5 mph N/A Snow Light Snow
6:36 PM 27.5 °F 15.9 °F 21.4 °F 78% 30.05 in 7.0 mi West 15.0 mph 21.9 mph N/A Snow Light Snow
6:56 PM 27.5 °F 15.9 °F 21.6 °F 78% 30.05 in 10.0 mi West 15.0 mph - N/A   Overcast
7:16 PM 27.0 °F 15.2 °F 23.0 °F 85% 30.06 in 1.2 mi West 15.0 mph 19.6 mph N/A Snow Light Snow
7:36 PM 26.8 °F 14.1 °F 22.1 °F 83% 30.07 in 10.0 mi West 17.3 mph - N/A   Overcast
7:56 PM 26.6 °F 16.8 °F 20.8 °F 79% 30.07 in 10.0 mi WNW 10.4 mph - N/A   Overcast
8:16 PM 27.1 °F 16.9 °F 20.7 °F 77% 30.08 in 10.0 mi West 11.5 mph 17.3 mph N/A Snow Light Snow
8:36 PM 27.1 °F 15.9 °F 19.9 °F 74% 30.08 in 10.0 mi West 13.8 mph 19.6 mph N/A   Overcast
8:56 PM 27.5 °F 16.8 °F 18.5 °F 69% 30.08 in 10.0 mi West 12.7 mph 24.2 mph N/A   Overcast
9:16 PM 27.5 °F 16.3 °F 18.5 °F 69% 30.09 in 10.0 mi West 13.8 mph - N/A   Overcast
9:36 PM 27.3 °F 15.6 °F 20.3 °F 75% 30.09 in 10.0 mi West 15.0 mph 19.6 mph N/A Snow Light Snow
11:36 PM 27.7 °F 17.1 °F 19.9 °F 73% 30.10 in 10.0 mi West 12.7 mph 19.6 mph N/A   Overcast
11:56 PM 27.5 °F 16.3 °F 20.1 °F 74% 30.11 in 10.0 mi West 13.8 mph 17.3 mph N/A   Overcast